sensor_id;sensor_type;location;lat;lon;timestamp;P1;durP1;ratioP1;P2;durP2;ratioP2
9759;SDS011;4919;48.792;9.202;2023-01-25T00:02:39;22.77;;;14.23;;
9759;SDS011;4919;48.792;9.202;2023-01-25T00:05:24;23.47;;;14.53;;
9759;SDS011;4919;48.792;9.202;2023-01-25T00:08:09;25.10;;;13.37;;
9759;SDS011;4919;48.792;9.202;2023-01-25T00:10:54;23.60;;;14.23;;
9759;SDS011;4919;48.792;9.202;2023-01-25T00:13:38;20.47;;;12.93;;
9759;SDS011;4919;48.792;9.202;2023-01-25T00:16:23;21.20;;;12.00;;
9759;SDS011;4919;48.792;9.202;2023-01-25T00:19:08;20.67;;;12.43;;
9759;SDS011;4919;48.792;9.202;2023-01-25T00:21:53;21.90;;;12.53;;
9759;SDS011;4919;48.792;9.202;2023-01-25T00:24:38;21.10;;;12.57;;
9759;SDS011;4919;48.792;9.202;2023-01-25T00:27:23;22.50;;;12.40;;
9759;SDS011;4919;48.792;9.202;2023-01-25T00:30:08;19.27;;;12.13;;
9759;SDS011;4919;48.792;9.202;2023-01-25T00:33:00;21.70;;;12.80;;
9759;SDS011;4919;48.792;9.202;2023-01-25T00:35:49;21.83;;;13.00;;
9759;SDS011;4919;48.792;9.202;2023-01-25T00:38:34;20.67;;;12.60;;
9759;SDS011;4919;48.792;9.202;2023-01-25T00:41:22;19.73;;;12.57;;
9759;SDS011;4919;48.792;9.202;2023-01-25T00:44:07;24.47;;;12.73;;
9759;SDS011;4919;48.792;9.202;2023-01-25T00:46:51;20.37;;;12.47;;
9759;SDS011;4919;48.792;9.202;2023-01-25T00:49:37;24.50;;;13.83;;
9759;SDS011;4919;48.792;9.202;2023-01-25T00:52:22;23.83;;;13.50;;
9759;SDS011;4919;48.792;9.202;2023-01-25T00:55:07;23.30;;;12.53;;
9759;SDS011;4919;48.792;9.202;2023-01-25T00:57:52;20.93;;;12.13;;
9759;SDS011;4919;48.792;9.202;2023-01-25T01:00:37;20.50;;;12.33;;
9759;SDS011;4919;48.792;9.202;2023-01-25T01:03:21;22.37;;;13.50;;
9759;SDS011;4919;48.792;9.202;2023-01-25T01:06:08;22.30;;;12.33;;
9759;SDS011;4919;48.792;9.202;2023-01-25T01:08:54;22.40;;;11.77;;
9759;SDS011;4919;48.792;9.202;2023-01-25T01:11:39;19.20;;;11.67;;
9759;SDS011;4919;48.792;9.202;2023-01-25T01:14:24;23.33;;;12.87;;
9759;SDS011;4919;48.792;9.202;2023-01-25T01:17:09;22.23;;;13.40;;
9759;SDS011;4919;48.792;9.202;2023-01-25T01:19:53;20.90;;;12.30;;
9759;SDS011;4919;48.792;9.202;2023-01-25T01:22:38;22.83;;;12.97;;
9759;SDS011;4919;48.792;9.202;2023-01-25T01:25:23;20.00;;;12.47;;
9759;SDS011;4919;48.792;9.202;2023-01-25T01:28:08;23.10;;;12.90;;
9759;SDS011;4919;48.792;9.202;2023-01-25T01:30:53;20.00;;;12.00;;
9759;SDS011;4919;48.792;9.202;2023-01-25T01:33:42;24.30;;;13.57;;
9759;SDS011;4919;48.792;9.202;2023-01-25T01:36:27;21.77;;;12.47;;
9759;SDS011;4919;48.792;9.202;2023-01-25T01:39:13;22.83;;;12.90;;
9759;SDS011;4919;48.792;9.202;2023-01-25T01:41:58;20.97;;;12.70;;
9759;SDS011;4919;48.792;9.202;2023-01-25T01:44:43;24.17;;;13.23;;
9759;SDS011;4919;48.792;9.202;2023-01-25T01:47:37;23.13;;;12.93;;
9759;SDS011;4919;48.792;9.202;2023-01-25T01:50:26;21.63;;;13.27;;
9759;SDS011;4919;48.792;9.202;2023-01-25T01:53:10;25.87;;;13.80;;
9759;SDS011;4919;48.792;9.202;2023-01-25T01:55:56;25.57;;;13.47;;
9759;SDS011;4919;48.792;9.202;2023-01-25T01:58:45;22.53;;;13.63;;
9759;SDS011;4919;48.792;9.202;2023-01-25T02:01:33;25.47;;;14.53;;
9759;SDS011;4919;48.792;9.202;2023-01-25T02:04:18;21.93;;;13.07;;
9759;SDS011;4919;48.792;9.202;2023-01-25T02:07:06;23.47;;;13.53;;
9759;SDS011;4919;48.792;9.202;2023-01-25T02:10:07;26.60;;;14.23;;
9759;SDS011;4919;48.792;9.202;2023-01-25T02:12:54;24.83;;;14.60;;
9759;SDS011;4919;48.792;9.202;2023-01-25T02:15:49;25.03;;;13.47;;
9759;SDS011;4919;48.792;9.202;2023-01-25T02:18:35;24.30;;;14.57;;
9759;SDS011;4919;48.792;9.202;2023-01-25T02:21:20;24.90;;;14.17;;
9759;SDS011;4919;48.792;9.202;2023-01-25T02:24:07;24.63;;;14.13;;
9759;SDS011;4919;48.792;9.202;2023-01-25T02:26:58;25.43;;;14.17;;
9759;SDS011;4919;48.792;9.202;2023-01-25T02:29:43;22.23;;;13.80;;
9759;SDS011;4919;48.792;9.202;2023-01-25T02:32:28;23.37;;;13.73;;
9759;SDS011;4919;48.792;9.202;2023-01-25T02:35:22;22.40;;;13.53;;
9759;SDS011;4919;48.792;9.202;2023-01-25T02:38:10;23.93;;;13.67;;
9759;SDS011;4919;48.792;9.202;2023-01-25T02:40:57;28.37;;;14.73;;
9759;SDS011;4919;48.792;9.202;2023-01-25T02:43:46;23.53;;;13.50;;
9759;SDS011;4919;48.792;9.202;2023-01-25T02:46:35;23.93;;;13.73;;
9759;SDS011;4919;48.792;9.202;2023-01-25T02:49:21;24.40;;;14.10;;
9759;SDS011;4919;48.792;9.202;2023-01-25T02:52:06;26.50;;;14.20;;
9759;SDS011;4919;48.792;9.202;2023-01-25T02:54:51;23.97;;;13.67;;
9759;SDS011;4919;48.792;9.202;2023-01-25T02:57:36;23.80;;;13.63;;
9759;SDS011;4919;48.792;9.202;2023-01-25T03:00:20;24.90;;;14.13;;
9759;SDS011;4919;48.792;9.202;2023-01-25T03:03:05;24.93;;;13.97;;
9759;SDS011;4919;48.792;9.202;2023-01-25T03:05:50;25.20;;;14.23;;
9759;SDS011;4919;48.792;9.202;2023-01-25T03:08:35;24.43;;;14.27;;
9759;SDS011;4919;48.792;9.202;2023-01-25T03:11:20;25.67;;;14.73;;
9759;SDS011;4919;48.792;9.202;2023-01-25T03:14:05;25.87;;;14.47;;
9759;SDS011;4919;48.792;9.202;2023-01-25T03:16:50;27.10;;;14.53;;
9759;SDS011;4919;48.792;9.202;2023-01-25T03:19:35;25.87;;;14.07;;
9759;SDS011;4919;48.792;9.202;2023-01-25T03:22:19;24.70;;;14.87;;
9759;SDS011;4919;48.792;9.202;2023-01-25T03:25:04;25.03;;;14.73;;
9759;SDS011;4919;48.792;9.202;2023-01-25T03:27:50;25.37;;;14.77;;
9759;SDS011;4919;48.792;9.202;2023-01-25T03:30:34;24.77;;;14.97;;
9759;SDS011;4919;48.792;9.202;2023-01-25T03:33:19;25.37;;;15.13;;
9759;SDS011;4919;48.792;9.202;2023-01-25T03:36:04;25.93;;;14.67;;
9759;SDS011;4919;48.792;9.202;2023-01-25T03:38:49;26.43;;;14.70;;
9759;SDS011;4919;48.792;9.202;2023-01-25T03:41:34;27.23;;;14.77;;
9759;SDS011;4919;48.792;9.202;2023-01-25T03:44:19;31.13;;;17.73;;
9759;SDS011;4919;48.792;9.202;2023-01-25T03:47:04;49.40;;;26.83;;
9759;SDS011;4919;48.792;9.202;2023-01-25T03:49:49;26.00;;;15.10;;
9759;SDS011;4919;48.792;9.202;2023-01-25T03:52:34;26.20;;;15.27;;
9759;SDS011;4919;48.792;9.202;2023-01-25T03:55:18;29.03;;;15.77;;
9759;SDS011;4919;48.792;9.202;2023-01-25T03:58:03;27.93;;;14.80;;
9759;SDS011;4919;48.792;9.202;2023-01-25T04:00:48;26.33;;;14.97;;
9759;SDS011;4919;48.792;9.202;2023-01-25T04:03:34;27.77;;;16.00;;
9759;SDS011;4919;48.792;9.202;2023-01-25T04:06:19;25.00;;;15.03;;
9759;SDS011;4919;48.792;9.202;2023-01-25T04:09:03;29.10;;;15.73;;
9759;SDS011;4919;48.792;9.202;2023-01-25T04:11:49;27.07;;;16.30;;
9759;SDS011;4919;48.792;9.202;2023-01-25T04:14:34;27.07;;;15.77;;
9759;SDS011;4919;48.792;9.202;2023-01-25T04:17:19;26.13;;;15.43;;
9759;SDS011;4919;48.792;9.202;2023-01-25T04:20:04;53.30;;;27.40;;
9759;SDS011;4919;48.792;9.202;2023-01-25T04:22:49;31.80;;;18.23;;
9759;SDS011;4919;48.792;9.202;2023-01-25T04:25:34;27.97;;;16.53;;
9759;SDS011;4919;48.792;9.202;2023-01-25T04:28:19;29.37;;;15.70;;
9759;SDS011;4919;48.792;9.202;2023-01-25T04:31:04;26.20;;;15.00;;
9759;SDS011;4919;48.792;9.202;2023-01-25T04:33:49;29.10;;;15.43;;
9759;SDS011;4919;48.792;9.202;2023-01-25T04:36:35;25.47;;;15.17;;
9759;SDS011;4919;48.792;9.202;2023-01-25T04:39:20;30.40;;;15.60;;
9759;SDS011;4919;48.792;9.202;2023-01-25T04:42:04;30.50;;;16.80;;
9759;SDS011;4919;48.792;9.202;2023-01-25T04:44:49;26.37;;;14.60;;
9759;SDS011;4919;48.792;9.202;2023-01-25T04:47:34;26.20;;;14.80;;
9759;SDS011;4919;48.792;9.202;2023-01-25T04:50:19;26.03;;;15.10;;
9759;SDS011;4919;48.792;9.202;2023-01-25T04:53:04;26.70;;;15.07;;
9759;SDS011;4919;48.792;9.202;2023-01-25T04:55:50;28.40;;;15.83;;
9759;SDS011;4919;48.792;9.202;2023-01-25T04:58:35;27.93;;;16.07;;
9759;SDS011;4919;48.792;9.202;2023-01-25T05:01:19;28.60;;;15.47;;
9759;SDS011;4919;48.792;9.202;2023-01-25T05:04:04;25.63;;;14.90;;
9759;SDS011;4919;48.792;9.202;2023-01-25T05:06:49;27.63;;;15.30;;
9759;SDS011;4919;48.792;9.202;2023-01-25T05:09:34;27.13;;;15.20;;
9759;SDS011;4919;48.792;9.202;2023-01-25T05:12:19;35.03;;;16.37;;
9759;SDS011;4919;48.792;9.202;2023-01-25T05:15:04;29.30;;;15.87;;
9759;SDS011;4919;48.792;9.202;2023-01-25T05:17:49;27.83;;;16.03;;
9759;SDS011;4919;48.792;9.202;2023-01-25T05:20:34;28.77;;;15.87;;
9759;SDS011;4919;48.792;9.202;2023-01-25T05:23:19;28.93;;;15.93;;
9759;SDS011;4919;48.792;9.202;2023-01-25T05:26:04;27.00;;;16.00;;
9759;SDS011;4919;48.792;9.202;2023-01-25T05:28:49;27.50;;;16.13;;
9759;SDS011;4919;48.792;9.202;2023-01-25T05:31:34;29.27;;;15.57;;
9759;SDS011;4919;48.792;9.202;2023-01-25T05:34:19;29.13;;;15.77;;
9759;SDS011;4919;48.792;9.202;2023-01-25T05:37:05;29.40;;;16.07;;
9759;SDS011;4919;48.792;9.202;2023-01-25T05:39:51;26.30;;;15.70;;
9759;SDS011;4919;48.792;9.202;2023-01-25T05:42:36;31.17;;;16.63;;
9759;SDS011;4919;48.792;9.202;2023-01-25T05:45:21;26.50;;;15.53;;
9759;SDS011;4919;48.792;9.202;2023-01-25T05:48:06;21.87;;;12.40;;
9759;SDS011;4919;48.792;9.202;2023-01-25T05:50:51;20.67;;;11.97;;
9759;SDS011;4919;48.792;9.202;2023-01-25T05:53:36;23.00;;;13.10;;
9759;SDS011;4919;48.792;9.202;2023-01-25T05:56:21;22.17;;;12.47;;
9759;SDS011;4919;48.792;9.202;2023-01-25T05:59:08;23.77;;;12.47;;
9759;SDS011;4919;48.792;9.202;2023-01-25T06:01:54;23.67;;;13.93;;
9759;SDS011;4919;48.792;9.202;2023-01-25T06:04:38;17.27;;;8.50;;
9759;SDS011;4919;48.792;9.202;2023-01-25T06:07:23;12.17;;;7.40;;
9759;SDS011;4919;48.792;9.202;2023-01-25T06:10:08;15.37;;;9.30;;
9759;SDS011;4919;48.792;9.202;2023-01-25T06:12:59;14.50;;;8.67;;
9759;SDS011;4919;48.792;9.202;2023-01-25T06:15:51;18.43;;;9.83;;
9759;SDS011;4919;48.792;9.202;2023-01-25T06:18:39;15.47;;;9.40;;
9759;SDS011;4919;48.792;9.202;2023-01-25T06:21:24;22.27;;;12.10;;
9759;SDS011;4919;48.792;9.202;2023-01-25T06:24:09;23.77;;;11.27;;
9759;SDS011;4919;48.792;9.202;2023-01-25T06:26:54;20.30;;;11.10;;
9759;SDS011;4919;48.792;9.202;2023-01-25T06:29:39;25.30;;;12.27;;
9759;SDS011;4919;48.792;9.202;2023-01-25T06:32:23;17.33;;;9.60;;
9759;SDS011;4919;48.792;9.202;2023-01-25T06:35:08;19.73;;;9.77;;
9759;SDS011;4919;48.792;9.202;2023-01-25T06:37:56;19.77;;;10.90;;
9759;SDS011;4919;48.792;9.202;2023-01-25T06:40:41;21.40;;;11.40;;
9759;SDS011;4919;48.792;9.202;2023-01-25T06:43:26;21.73;;;11.47;;
9759;SDS011;4919;48.792;9.202;2023-01-25T06:46:11;18.10;;;10.37;;
9759;SDS011;4919;48.792;9.202;2023-01-25T06:48:56;19.33;;;10.43;;
9759;SDS011;4919;48.792;9.202;2023-01-25T06:51:41;16.33;;;9.43;;
9759;SDS011;4919;48.792;9.202;2023-01-25T06:54:26;17.10;;;9.93;;
9759;SDS011;4919;48.792;9.202;2023-01-25T06:57:11;17.87;;;9.43;;
9759;SDS011;4919;48.792;9.202;2023-01-25T06:59:56;19.33;;;10.23;;
9759;SDS011;4919;48.792;9.202;2023-01-25T07:02:41;20.63;;;10.63;;
9759;SDS011;4919;48.792;9.202;2023-01-25T07:05:25;23.47;;;11.60;;
9759;SDS011;4919;48.792;9.202;2023-01-25T07:08:10;22.40;;;11.97;;
9759;SDS011;4919;48.792;9.202;2023-01-25T07:10:56;25.00;;;12.33;;
9759;SDS011;4919;48.792;9.202;2023-01-25T07:13:45;29.10;;;12.43;;
9759;SDS011;4919;48.792;9.202;2023-01-25T07:16:31;23.20;;;11.90;;
9759;SDS011;4919;48.792;9.202;2023-01-25T07:19:16;23.53;;;12.43;;
9759;SDS011;4919;48.792;9.202;2023-01-25T07:22:00;23.80;;;12.97;;
9759;SDS011;4919;48.792;9.202;2023-01-25T07:24:45;26.37;;;13.23;;
9759;SDS011;4919;48.792;9.202;2023-01-25T07:27:33;30.23;;;14.97;;
9759;SDS011;4919;48.792;9.202;2023-01-25T07:30:18;26.53;;;13.83;;
9759;SDS011;4919;48.792;9.202;2023-01-25T07:33:03;25.93;;;13.83;;
9759;SDS011;4919;48.792;9.202;2023-01-25T07:35:48;27.17;;;14.20;;
9759;SDS011;4919;48.792;9.202;2023-01-25T07:38:33;31.07;;;13.43;;
9759;SDS011;4919;48.792;9.202;2023-01-25T07:41:18;30.27;;;14.77;;
9759;SDS011;4919;48.792;9.202;2023-01-25T07:44:03;31.00;;;15.13;;
9759;SDS011;4919;48.792;9.202;2023-01-25T07:46:47;34.93;;;17.20;;
9759;SDS011;4919;48.792;9.202;2023-01-25T07:49:32;33.93;;;16.80;;
9759;SDS011;4919;48.792;9.202;2023-01-25T07:52:17;37.40;;;18.20;;
9759;SDS011;4919;48.792;9.202;2023-01-25T07:55:02;39.80;;;18.77;;
9759;SDS011;4919;48.792;9.202;2023-01-25T07:57:47;43.60;;;18.67;;
9759;SDS011;4919;48.792;9.202;2023-01-25T08:00:32;36.73;;;17.50;;
9759;SDS011;4919;48.792;9.202;2023-01-25T08:03:17;40.33;;;17.23;;
9759;SDS011;4919;48.792;9.202;2023-01-25T08:06:02;37.80;;;17.53;;
9759;SDS011;4919;48.792;9.202;2023-01-25T08:08:48;33.90;;;15.93;;
9759;SDS011;4919;48.792;9.202;2023-01-25T08:11:33;36.37;;;15.90;;
9759;SDS011;4919;48.792;9.202;2023-01-25T08:14:17;33.53;;;15.30;;
9759;SDS011;4919;48.792;9.202;2023-01-25T08:17:02;30.80;;;14.43;;
9759;SDS011;4919;48.792;9.202;2023-01-25T08:19:47;30.87;;;15.00;;
9759;SDS011;4919;48.792;9.202;2023-01-25T08:22:32;28.97;;;13.77;;
9759;SDS011;4919;48.792;9.202;2023-01-25T08:25:17;30.70;;;14.27;;
9759;SDS011;4919;48.792;9.202;2023-01-25T08:28:02;31.03;;;13.50;;
9759;SDS011;4919;48.792;9.202;2023-01-25T08:30:47;26.73;;;13.93;;
9759;SDS011;4919;48.792;9.202;2023-01-25T08:33:32;31.07;;;14.30;;
9759;SDS011;4919;48.792;9.202;2023-01-25T08:36:17;27.57;;;14.00;;
9759;SDS011;4919;48.792;9.202;2023-01-25T08:39:04;26.07;;;13.57;;
9759;SDS011;4919;48.792;9.202;2023-01-25T08:41:50;28.20;;;14.03;;
9759;SDS011;4919;48.792;9.202;2023-01-25T08:44:35;24.43;;;12.63;;
9759;SDS011;4919;48.792;9.202;2023-01-25T08:47:20;25.97;;;12.83;;
9759;SDS011;4919;48.792;9.202;2023-01-25T08:50:05;30.13;;;14.03;;
9759;SDS011;4919;48.792;9.202;2023-01-25T08:52:50;30.67;;;14.00;;
9759;SDS011;4919;48.792;9.202;2023-01-25T08:55:35;27.43;;;12.83;;
9759;SDS011;4919;48.792;9.202;2023-01-25T08:58:20;28.03;;;13.60;;
9759;SDS011;4919;48.792;9.202;2023-01-25T09:01:06;28.87;;;12.80;;
9759;SDS011;4919;48.792;9.202;2023-01-25T09:03:53;27.70;;;11.77;;
9759;SDS011;4919;48.792;9.202;2023-01-25T09:06:38;27.30;;;12.53;;
9759;SDS011;4919;48.792;9.202;2023-01-25T09:09:23;24.43;;;12.13;;
9759;SDS011;4919;48.792;9.202;2023-01-25T09:12:08;25.87;;;13.07;;
9759;SDS011;4919;48.792;9.202;2023-01-25T09:14:53;24.50;;;12.40;;
9759;SDS011;4919;48.792;9.202;2023-01-25T09:17:38;27.43;;;12.33;;
9759;SDS011;4919;48.792;9.202;2023-01-25T09:20:23;27.77;;;13.23;;
9759;SDS011;4919;48.792;9.202;2023-01-25T09:23:07;27.07;;;13.13;;
9759;SDS011;4919;48.792;9.202;2023-01-25T09:25:56;27.57;;;13.37;;
9759;SDS011;4919;48.792;9.202;2023-01-25T09:28:41;24.93;;;12.00;;
9759;SDS011;4919;48.792;9.202;2023-01-25T09:31:29;26.20;;;12.33;;
9759;SDS011;4919;48.792;9.202;2023-01-25T09:34:14;30.43;;;13.90;;
9759;SDS011;4919;48.792;9.202;2023-01-25T09:36:59;30.80;;;13.63;;
9759;SDS011;4919;48.792;9.202;2023-01-25T09:39:44;28.17;;;13.27;;
9759;SDS011;4919;48.792;9.202;2023-01-25T09:45:33;27.33;;;13.07;;
9759;SDS011;4919;48.792;9.202;2023-01-25T09:48:31;32.27;;;14.93;;
9759;SDS011;4919;48.792;9.202;2023-01-25T09:51:28;27.07;;;12.67;;
9759;SDS011;4919;48.792;9.202;2023-01-25T09:54:22;25.73;;;12.73;;
9759;SDS011;4919;48.792;9.202;2023-01-25T09:57:10;29.13;;;13.63;;
9759;SDS011;4919;48.792;9.202;2023-01-25T10:00:17;27.70;;;13.30;;
9759;SDS011;4919;48.792;9.202;2023-01-25T10:03:24;28.90;;;14.10;;
9759;SDS011;4919;48.792;9.202;2023-01-25T10:06:13;30.03;;;14.00;;
9759;SDS011;4919;48.792;9.202;2023-01-25T10:09:02;26.87;;;13.50;;
9759;SDS011;4919;48.792;9.202;2023-01-25T10:11:58;30.70;;;14.90;;
9759;SDS011;4919;48.792;9.202;2023-01-25T10:14:57;28.57;;;13.83;;
9759;SDS011;4919;48.792;9.202;2023-01-25T10:17:42;30.47;;;14.20;;
9759;SDS011;4919;48.792;9.202;2023-01-25T10:20:33;30.27;;;14.40;;
9759;SDS011;4919;48.792;9.202;2023-01-25T10:23:35;30.77;;;15.33;;
9759;SDS011;4919;48.792;9.202;2023-01-25T10:26:33;32.27;;;14.57;;
9759;SDS011;4919;48.792;9.202;2023-01-25T10:29:26;29.43;;;14.57;;
9759;SDS011;4919;48.792;9.202;2023-01-25T10:35:17;31.03;;;14.70;;
9759;SDS011;4919;48.792;9.202;2023-01-25T10:38:05;35.30;;;15.40;;
9759;SDS011;4919;48.792;9.202;2023-01-25T10:44:19;29.77;;;14.47;;
9759;SDS011;4919;48.792;9.202;2023-01-25T10:47:06;33.23;;;15.67;;
9759;SDS011;4919;48.792;9.202;2023-01-25T10:50:09;31.80;;;15.87;;
9759;SDS011;4919;48.792;9.202;2023-01-25T10:53:27;39.30;;;16.23;;
9759;SDS011;4919;48.792;9.202;2023-01-25T10:56:24;30.90;;;15.47;;
9759;SDS011;4919;48.792;9.202;2023-01-25T11:05:23;31.83;;;16.10;;
9759;SDS011;4919;48.792;9.202;2023-01-25T11:11:20;39.00;;;17.87;;
9759;SDS011;4919;48.792;9.202;2023-01-25T11:14:14;35.13;;;16.70;;
9759;SDS011;4919;48.792;9.202;2023-01-25T11:17:00;39.23;;;17.50;;
9759;SDS011;4919;48.792;9.202;2023-01-25T11:19:47;35.60;;;17.67;;
9759;SDS011;4919;48.792;9.202;2023-01-25T11:22:32;33.73;;;14.87;;
9759;SDS011;4919;48.792;9.202;2023-01-25T11:28:15;33.97;;;15.80;;
9759;SDS011;4919;48.792;9.202;2023-01-25T11:31:07;38.73;;;17.17;;
9759;SDS011;4919;48.792;9.202;2023-01-25T11:33:55;34.37;;;17.23;;
9759;SDS011;4919;48.792;9.202;2023-01-25T11:39:28;36.77;;;17.00;;
9759;SDS011;4919;48.792;9.202;2023-01-25T11:52:06;42.90;;;18.17;;
9759;SDS011;4919;48.792;9.202;2023-01-25T11:58:36;36.53;;;16.80;;
9759;SDS011;4919;48.792;9.202;2023-01-25T12:01:50;45.67;;;19.47;;
9759;SDS011;4919;48.792;9.202;2023-01-25T12:07:47;42.43;;;17.90;;
9759;SDS011;4919;48.792;9.202;2023-01-25T12:11:04;40.57;;;18.70;;
9759;SDS011;4919;48.792;9.202;2023-01-25T12:13:55;42.60;;;18.60;;
9759;SDS011;4919;48.792;9.202;2023-01-25T12:17:06;40.87;;;18.70;;
9759;SDS011;4919;48.792;9.202;2023-01-25T12:26:49;33.97;;;15.90;;
9759;SDS011;4919;48.792;9.202;2023-01-25T12:29:37;37.50;;;17.00;;
9759;SDS011;4919;48.792;9.202;2023-01-25T12:32:42;33.43;;;15.13;;
9759;SDS011;4919;48.792;9.202;2023-01-25T12:35:41;31.67;;;14.30;;
9759;SDS011;4919;48.792;9.202;2023-01-25T12:38:49;30.83;;;13.93;;
9759;SDS011;4919;48.792;9.202;2023-01-25T12:41:46;28.40;;;13.97;;
9759;SDS011;4919;48.792;9.202;2023-01-25T12:47:37;29.20;;;14.60;;
9759;SDS011;4919;48.792;9.202;2023-01-25T12:50:44;29.47;;;14.13;;
9759;SDS011;4919;48.792;9.202;2023-01-25T12:53:35;35.20;;;14.87;;
9759;SDS011;4919;48.792;9.202;2023-01-25T13:05:47;34.53;;;14.67;;
9759;SDS011;4919;48.792;9.202;2023-01-25T13:08:45;41.93;;;16.70;;
9759;SDS011;4919;48.792;9.202;2023-01-25T13:11:51;36.97;;;16.47;;
9759;SDS011;4919;48.792;9.202;2023-01-25T13:17:28;36.13;;;15.57;;
9759;SDS011;4919;48.792;9.202;2023-01-25T13:23:38;41.23;;;16.23;;
9759;SDS011;4919;48.792;9.202;2023-01-25T13:26:36;36.70;;;15.53;;
9759;SDS011;4919;48.792;9.202;2023-01-25T13:38:23;35.33;;;14.03;;
9759;SDS011;4919;48.792;9.202;2023-01-25T13:41:13;32.07;;;14.67;;
9759;SDS011;4919;48.792;9.202;2023-01-25T13:44:15;35.47;;;15.73;;
9759;SDS011;4919;48.792;9.202;2023-01-25T13:47:11;34.03;;;14.40;;
9759;SDS011;4919;48.792;9.202;2023-01-25T13:50:07;34.90;;;16.27;;
9759;SDS011;4919;48.792;9.202;2023-01-25T13:55:58;34.47;;;15.37;;
9759;SDS011;4919;48.792;9.202;2023-01-25T13:58:46;35.37;;;14.90;;
9759;SDS011;4919;48.792;9.202;2023-01-25T14:01:31;35.37;;;15.77;;
9759;SDS011;4919;48.792;9.202;2023-01-25T14:04:18;38.97;;;16.07;;
9759;SDS011;4919;48.792;9.202;2023-01-25T14:07:03;34.20;;;15.33;;
9759;SDS011;4919;48.792;9.202;2023-01-25T14:09:47;36.17;;;17.13;;
9759;SDS011;4919;48.792;9.202;2023-01-25T14:12:35;35.17;;;16.37;;
9759;SDS011;4919;48.792;9.202;2023-01-25T14:15:23;37.53;;;16.63;;
9759;SDS011;4919;48.792;9.202;2023-01-25T14:18:10;32.97;;;15.07;;
9759;SDS011;4919;48.792;9.202;2023-01-25T14:21:09;32.30;;;15.50;;
9759;SDS011;4919;48.792;9.202;2023-01-25T14:24:08;27.90;;;12.83;;
9759;SDS011;4919;48.792;9.202;2023-01-25T14:26:53;38.47;;;13.90;;
9759;SDS011;4919;48.792;9.202;2023-01-25T14:29:39;28.80;;;13.30;;
9759;SDS011;4919;48.792;9.202;2023-01-25T14:32:25;31.33;;;13.53;;
9759;SDS011;4919;48.792;9.202;2023-01-25T14:38:21;34.27;;;14.27;;
9759;SDS011;4919;48.792;9.202;2023-01-25T14:41:12;32.07;;;15.17;;
9759;SDS011;4919;48.792;9.202;2023-01-25T14:44:01;27.23;;;13.33;;
9759;SDS011;4919;48.792;9.202;2023-01-25T14:46:48;34.33;;;14.37;;
9759;SDS011;4919;48.792;9.202;2023-01-25T14:49:33;83.90;;;35.27;;
9759;SDS011;4919;48.792;9.202;2023-01-25T14:52:18;45.97;;;22.10;;
9759;SDS011;4919;48.792;9.202;2023-01-25T14:55:06;32.03;;;14.10;;
9759;SDS011;4919;48.792;9.202;2023-01-25T14:57:51;46.47;;;20.67;;
9759;SDS011;4919;48.792;9.202;2023-01-25T15:00:41;32.17;;;13.83;;
9759;SDS011;4919;48.792;9.202;2023-01-25T15:03:40;30.70;;;14.50;;
9759;SDS011;4919;48.792;9.202;2023-01-25T15:06:26;29.70;;;12.77;;
9759;SDS011;4919;48.792;9.202;2023-01-25T15:14:59;34.87;;;15.57;;
9759;SDS011;4919;48.792;9.202;2023-01-25T15:17:45;31.87;;;15.60;;
9759;SDS011;4919;48.792;9.202;2023-01-25T15:23:22;33.70;;;15.73;;
9759;SDS011;4919;48.792;9.202;2023-01-25T15:26:28;31.10;;;13.53;;
9759;SDS011;4919;48.792;9.202;2023-01-25T15:29:15;34.87;;;14.20;;
9759;SDS011;4919;48.792;9.202;2023-01-25T15:32:02;31.77;;;13.93;;
9759;SDS011;4919;48.792;9.202;2023-01-25T15:34:47;32.63;;;13.50;;
9759;SDS011;4919;48.792;9.202;2023-01-25T15:37:31;32.10;;;13.73;;
9759;SDS011;4919;48.792;9.202;2023-01-25T15:40:16;39.73;;;15.53;;
9759;SDS011;4919;48.792;9.202;2023-01-25T15:43:01;31.40;;;14.47;;
9759;SDS011;4919;48.792;9.202;2023-01-25T15:45:47;30.90;;;12.77;;
9759;SDS011;4919;48.792;9.202;2023-01-25T15:48:34;36.20;;;15.10;;
9759;SDS011;4919;48.792;9.202;2023-01-25T15:51:26;83.17;;;35.23;;
9759;SDS011;4919;48.792;9.202;2023-01-25T15:54:12;29.83;;;13.50;;
9759;SDS011;4919;48.792;9.202;2023-01-25T15:56:57;33.10;;;12.77;;
9759;SDS011;4919;48.792;9.202;2023-01-25T15:59:43;27.17;;;12.40;;
9759;SDS011;4919;48.792;9.202;2023-01-25T16:02:28;28.20;;;11.90;;
9759;SDS011;4919;48.792;9.202;2023-01-25T16:05:13;29.53;;;12.27;;
9759;SDS011;4919;48.792;9.202;2023-01-25T16:07:57;29.07;;;11.77;;
9759;SDS011;4919;48.792;9.202;2023-01-25T16:10:42;28.27;;;12.40;;
9759;SDS011;4919;48.792;9.202;2023-01-25T16:13:28;35.17;;;13.17;;
9759;SDS011;4919;48.792;9.202;2023-01-25T16:16:23;33.47;;;12.87;;
9759;SDS011;4919;48.792;9.202;2023-01-25T16:19:09;40.07;;;15.03;;
9759;SDS011;4919;48.792;9.202;2023-01-25T16:21:57;34.10;;;14.27;;
9759;SDS011;4919;48.792;9.202;2023-01-25T16:24:42;33.00;;;12.93;;
9759;SDS011;4919;48.792;9.202;2023-01-25T16:27:28;35.23;;;13.63;;
9759;SDS011;4919;48.792;9.202;2023-01-25T16:30:15;37.97;;;14.37;;
9759;SDS011;4919;48.792;9.202;2023-01-25T16:33:02;33.40;;;13.73;;
9759;SDS011;4919;48.792;9.202;2023-01-25T16:35:48;36.93;;;13.93;;
9759;SDS011;4919;48.792;9.202;2023-01-25T16:38:53;38.90;;;15.10;;
9759;SDS011;4919;48.792;9.202;2023-01-25T16:41:38;37.83;;;14.47;;
9759;SDS011;4919;48.792;9.202;2023-01-25T16:44:23;37.13;;;14.43;;
9759;SDS011;4919;48.792;9.202;2023-01-25T16:47:08;35.50;;;14.57;;
9759;SDS011;4919;48.792;9.202;2023-01-25T16:49:57;39.23;;;13.90;;
9759;SDS011;4919;48.792;9.202;2023-01-25T16:52:42;36.43;;;14.43;;
9759;SDS011;4919;48.792;9.202;2023-01-25T16:55:27;33.53;;;13.10;;
9759;SDS011;4919;48.792;9.202;2023-01-25T16:58:12;34.50;;;12.90;;
9759;SDS011;4919;48.792;9.202;2023-01-25T17:00:57;32.67;;;13.27;;
9759;SDS011;4919;48.792;9.202;2023-01-25T17:03:42;36.50;;;13.87;;
9759;SDS011;4919;48.792;9.202;2023-01-25T17:06:29;31.00;;;13.50;;
9759;SDS011;4919;48.792;9.202;2023-01-25T17:09:16;36.97;;;14.87;;
9759;SDS011;4919;48.792;9.202;2023-01-25T17:12:02;37.10;;;14.90;;
9759;SDS011;4919;48.792;9.202;2023-01-25T17:14:47;36.70;;;14.10;;
9759;SDS011;4919;48.792;9.202;2023-01-25T17:17:32;42.40;;;16.33;;
9759;SDS011;4919;48.792;9.202;2023-01-25T17:20:17;38.73;;;14.77;;
9759;SDS011;4919;48.792;9.202;2023-01-25T17:23:02;40.43;;;15.90;;
9759;SDS011;4919;48.792;9.202;2023-01-25T17:25:47;50.00;;;16.80;;
9759;SDS011;4919;48.792;9.202;2023-01-25T17:28:32;48.40;;;17.40;;
9759;SDS011;4919;48.792;9.202;2023-01-25T17:31:21;42.27;;;15.87;;
9759;SDS011;4919;48.792;9.202;2023-01-25T17:34:10;40.20;;;14.73;;
9759;SDS011;4919;48.792;9.202;2023-01-25T17:36:56;37.23;;;15.27;;
9759;SDS011;4919;48.792;9.202;2023-01-25T17:39:41;46.83;;;17.50;;
9759;SDS011;4919;48.792;9.202;2023-01-25T17:42:26;40.33;;;13.57;;
9759;SDS011;4919;48.792;9.202;2023-01-25T17:45:11;39.13;;;15.13;;
9759;SDS011;4919;48.792;9.202;2023-01-25T17:47:56;42.43;;;15.33;;
9759;SDS011;4919;48.792;9.202;2023-01-25T17:50:40;35.73;;;14.73;;
9759;SDS011;4919;48.792;9.202;2023-01-25T17:53:25;36.77;;;14.40;;
9759;SDS011;4919;48.792;9.202;2023-01-25T17:56:11;40.93;;;15.63;;
9759;SDS011;4919;48.792;9.202;2023-01-25T17:58:56;49.27;;;21.27;;
9759;SDS011;4919;48.792;9.202;2023-01-25T18:01:41;41.50;;;16.10;;
9759;SDS011;4919;48.792;9.202;2023-01-25T18:04:26;42.27;;;15.20;;
9759;SDS011;4919;48.792;9.202;2023-01-25T18:07:11;34.07;;;14.37;;
9759;SDS011;4919;48.792;9.202;2023-01-25T18:09:55;39.53;;;14.43;;
9759;SDS011;4919;48.792;9.202;2023-01-25T18:12:40;36.30;;;13.17;;
9759;SDS011;4919;48.792;9.202;2023-01-25T18:15:25;34.43;;;12.93;;
9759;SDS011;4919;48.792;9.202;2023-01-25T18:18:10;30.73;;;12.97;;
9759;SDS011;4919;48.792;9.202;2023-01-25T18:21:05;32.57;;;12.90;;